Time;durP1;ratioP1;P1;durP2;ratioP2;P2;SDS_P1;SDS_P2;PMS_P1;PMS_P2;Temp;Humidity;BMP_temperature;BMP_pressure;BME280_temperature;BME280_humidity;BME280_pressure;Samples;Min_cycle;Max_cycle;Signal;HPM_P1;HPM_P2
2022/03/13 00:02:19;;;;;;;;;;;;;;;;;;2212114;60;1155;-72
2022/03/13 00:04:54;;;;;;;;;;;;;;;;;;2212719;67;1357;-72
2022/03/13 00:07:28;;;;;;;;;;;;;;;;;;2210750;59;2002;-72
2022/03/13 00:10:04;;;;;;;;;;;;;;;;;;2212790;67;1219;-72
2022/03/13 00:12:37;;;;;;;;;;;;;;;;;;2212487;59;1925;-72
2022/03/13 00:15:14;;;;;;;;;;;;;;;;;;2211539;67;1184;-72
2022/03/13 00:17:47;;;;;;;;;;;;;;;;;;2212448;67;1179;-72
2022/03/13 00:20:22;;;;;;;;;;;;;;;;;;2212858;67;1086;-72
2022/03/13 00:22:55;;;;;;;;;;;;;;;;;;2211545;67;1137;-72
2022/03/13 00:25:31;;;;;;;;;;;;;;;;;;2211826;67;1238;-72
2022/03/13 00:28:05;;;;;;;;;;;;;;;;;;2212428;59;2052;-72
2022/03/13 00:30:39;;;;;;;;;;;;;;;;;;2212786;67;1937;-72
2022/03/13 00:33:12;;;;;;;;;;;;;;;;;;2211605;59;1204;-72
2022/03/13 00:35:45;;;;;;;;;;;;;;;;;;2212217;67;1091;-72
2022/03/13 00:38:19;;;;;;;;;;;;;;;;;;2212790;67;1196;-72
2022/03/13 00:40:55;;;;;;;;;;;;;;;;;;2212363;59;1251;-72
2022/03/13 00:43:28;;;;;;;;;;;;;;;;;;2212292;59;1249;-72
2022/03/13 00:46:01;;;;;;;;;;;;;;;;;;2207987;67;1239;-72
2022/03/13 00:48:35;;;;;;;;;;;;;;;;;;2212429;59;1600;-72
2022/03/13 00:51:08;;;;;;;;;;;;;;;;;;2212119;59;1998;-72
2022/03/13 00:53:41;;;;;;;;;;;;;;;;;;2212236;59;2085;-72
2022/03/13 00:56:17;;;;;;;;;;;;;;;;;;2212281;67;1258;-71
2022/03/13 00:58:50;;;;;;;;;;;;;;;;;;2212766;59;1208;-72
2022/03/13 01:01:23;;;;;;;;;;;;;;;;;;2212808;67;1073;-72
2022/03/13 01:03:56;;;;;;;;;;;;;;;;;;2212117;67;1245;-72
2022/03/13 01:06:30;;;;;;;;;;;;;;;;;;2211711;59;1587;-72
2022/03/13 01:09:03;;;;;;;;;;;;;;;;;;2212950;67;1161;-72
2022/03/13 01:11:39;;;;;;;;;;;;;;;;;;2211983;67;1976;-71
2022/03/13 01:14:13;;;;;;;;;;;;;;;;;;2212277;59;1216;-72
2022/03/13 01:16:46;;;;;;;;;;;;;;;;;;2211997;59;1223;-72
2022/03/13 01:19:19;;;;;;;;;;;;;;;;;;2211479;59;1492;-72
2022/03/13 01:21:52;;;;;;;;;;;;;;;;;;2211710;67;1284;-72
2022/03/13 01:24:33;;;;;;;;;;;;;;;;;;2212127;59;1114;-72
2022/03/13 01:27:08;;;;;;;;;;;;;;;;;;2211696;59;1584;-71
2022/03/13 01:29:42;;;;;;;;;;;;;;;;;;2208671;67;1177;-72
2022/03/13 01:32:15;;;;;;;;;;;;;;;;;;2211902;67;1920;-72
2022/03/13 01:34:50;;;;;;;;;;;;;;;;;;2208669;67;1254;-72
2022/03/13 01:37:30;;;;;;;;;;;;;;;;;;2211877;67;1207;-72
2022/03/13 01:40:06;;;;;;;;;;;;;;;;;;2211864;67;1186;-71
2022/03/13 01:42:44;;;;;;;;;;;;;;;;;;2211666;59;1210;-72
2022/03/13 01:45:19;;;;;;;;;;;;;;;;;;2211619;67;1168;-72
2022/03/13 01:47:53;;;;;;;;;;;;;;;;;;2211432;59;1701;-72
2022/03/13 01:50:27;;;;;;;;;;;;;;;;;;2211521;59;1983;-72
2022/03/13 01:53:00;;;;;;;;;;;;;;;;;;2211541;67;1978;-72
2022/03/13 01:55:33;;;;;;;;;;;;;;;;;;2211460;59;2360;-72
2022/03/13 01:58:09;;;;;;;;;;;;;;;;;;2211835;67;1266;-72
2022/03/13 02:00:42;;;;;;;;;;;;;;;;;;2211891;67;1270;-72
2022/03/13 02:03:15;;;;;;;;;;;;;;;;;;2212136;59;1150;-72
2022/03/13 02:05:49;;;;;;;;;;;;;;;;;;2212067;67;1245;-72
2022/03/13 02:08:23;;;;;;;;;;;;;;;;;;2211570;59;1745;-72
2022/03/13 02:10:56;;;;;;;;;;;;;;;;;;2212090;59;1234;-71
2022/03/13 02:13:34;;;;;;;;;;;;;;;;;;2211224;67;1941;-72
2022/03/13 02:16:07;;;;;;;;;;;;;;;;;;2211674;67;1312;-72
2022/03/13 02:18:41;;;;;;;;;;;;;;;;;;2211688;59;1180;-72
2022/03/13 02:21:14;;;;;;;;;;;;;;;;;;2211404;67;1130;-72
2022/03/13 02:23:50;;;;;;;;;;;;;;;;;;2212156;67;2382;-72
2022/03/13 02:26:23;;;;;;;;;;;;;;;;;;2211198;59;1623;-72
2022/03/13 02:28:57;;;;;;;;;;;;;;;;;;2211692;67;1156;-72
2022/03/13 02:31:33;;;;;;;;;;;;;;;;;;2208387;67;1986;-72
2022/03/13 02:34:06;;;;;;;;;;;;;;;;;;2211081;67;1149;-72
2022/03/13 02:36:49;;;;;;;;;;;;;;;;;;2211520;67;1268;-72
2022/03/13 02:39:26;;;;;;;;;;;;;;;;;;2211102;67;1307;-72
2022/03/13 02:41:59;;;;;;;;;;;;;;;;;;2210635;67;1236;-72
2022/03/13 02:44:32;;;;;;;;;;;;;;;;;;2211506;59;1080;-72
2022/03/13 02:47:07;;;;;;;;;;;;;;;;;;2210402;59;1713;-72
2022/03/13 02:49:40;;;;;;;;;;;;;;;;;;2211494;67;1227;-72
2022/03/13 02:52:13;;;;;;;;;;;;;;;;;;2211456;67;1979;-72
2022/03/13 02:54:49;;;;;;;;;;;;;;;;;;2210833;60;2346;-72
2022/03/13 02:57:22;;;;;;;;;;;;;;;;;;2210868;67;1274;-71
2022/03/13 02:59:56;;;;;;;;;;;;;;;;;;2211091;67;1222;-72
2022/03/13 03:02:29;;;;;;;;;;;;;;;;;;2211073;67;1267;-72
2022/03/13 03:05:04;;;;;;;;;;;;;;;;;;2210992;67;1215;-72
2022/03/13 03:07:38;;;;;;;;;;;;;;;;;;2210063;59;1616;-72
2022/03/13 03:10:15;;;;;;;;;;;;;;;;;;2211530;67;1227;-72
2022/03/13 03:12:48;;;;;;;;;;;;;;;;;;2211431;67;1972;-72
2022/03/13 03:15:23;;;;;;;;;;;;;;;;;;2212155;67;1155;-72
2022/03/13 03:17:56;;;;;;;;;;;;;;;;;;2212027;67;1216;-72
2022/03/13 03:20:29;;;;;;;;;;;;;;;;;;2207607;59;1610;-72
2022/03/13 03:23:02;;;;;;;;;;;;;;;;;;2211780;67;1203;-72
2022/03/13 03:25:38;;;;;;;;;;;;;;;;;;2212044;59;2392;-72
2022/03/13 03:28:11;;;;;;;;;;;;;;;;;;2210303;59;1724;-72
2022/03/13 03:30:44;;;;;;;;;;;;;;;;;;2211685;59;1131;-72
2022/03/13 03:33:18;;;;;;;;;;;;;;;;;;2211933;67;1990;-72
2022/03/13 03:35:51;;;;;;;;;;;;;;;;;;2212243;59;1184;-72
2022/03/13 03:38:24;;;;;;;;;;;;;;;;;;2211628;59;1397;-72
2022/03/13 03:41:00;;;;;;;;;;;;;;;;;;2211225;59;1219;-72
2022/03/13 03:43:34;;;;;;;;;;;;;;;;;;2212060;59;1130;-72
2022/03/13 03:46:07;;;;;;;;;;;;;;;;;;2211729;59;1645;-72
2022/03/13 03:48:40;;;;;;;;;;;;;;;;;;2210259;59;1220;-72
2022/03/13 03:51:13;;;;;;;;;;;;;;;;;;2211361;67;1208;-72
2022/03/13 03:53:47;;;;;;;;;;;;;;;;;;2211568;59;2181;-72
2022/03/13 03:56:22;;;;;;;;;;;;;;;;;;2211744;67;1227;-72
2022/03/13 03:58:56;;;;;;;;;;;;;;;;;;2211945;59;1092;-72
2022/03/13 04:01:29;;;;;;;;;;;;;;;;;;2211409;67;1013;-72
2022/03/13 04:04:02;;;;;;;;;;;;;;;;;;2207298;67;1305;-72
2022/03/13 04:06:37;;;;;;;;;;;;;;;;;;2210373;59;1618;-72
2022/03/13 04:09:11;;;;;;;;;;;;;;;;;;2211675;59;1179;-71
2022/03/13 04:11:47;;;;;;;;;;;;;;;;;;2211259;67;1921;-72
2022/03/13 04:14:21;;;;;;;;;;;;;;;;;;2211186;67;1128;-71
2022/03/13 04:16:55;;;;;;;;;;;;;;;;;;2211536;67;1203;-72
2022/03/13 04:19:28;;;;;;;;;;;;;;;;;;2210971;67;1218;-72
2022/03/13 04:22:02;;;;;;;;;;;;;;;;;;2210288;67;1220;-72
2022/03/13 04:24:35;;;;;;;;;;;;;;;;;;2211189;59;2012;-72
2022/03/13 04:27:11;;;;;;;;;;;;;;;;;;2210649;59;1597;-72
2022/03/13 04:29:44;;;;;;;;;;;;;;;;;;2211248;67;1120;-72
2022/03/13 04:32:21;;;;;;;;;;;;;;;;;;2211078;67;1977;-71
2022/03/13 04:34:55;;;;;;;;;;;;;;;;;;2211407;67;1204;-71
2022/03/13 04:37:28;;;;;;;;;;;;;;;;;;2211759;67;1355;-72
2022/03/13 04:40:01;;;;;;;;;;;;;;;;;;2211256;59;1264;-72
2022/03/13 04:42:37;;;;;;;;;;;;;;;;;;2210955;67;1228;-72
2022/03/13 04:45:11;;;;;;;;;;;;;;;;;;2210994;67;1181;-72
2022/03/13 04:47:45;;;;;;;;;;;;;;;;;;2210536;59;2036;-72
2022/03/13 04:50:18;;;;;;;;;;;;;;;;;;2211191;67;1297;-72
2022/03/13 04:52:51;;;;;;;;;;;;;;;;;;2211073;67;1924;-72
2022/03/13 04:55:24;;;;;;;;;;;;;;;;;;2211339;59;1918;-72
2022/03/13 04:58:00;;;;;;;;;;;;;;;;;;2211378;59;1284;-72
2022/03/13 05:00:35;;;;;;;;;;;;;;;;;;2206998;67;1251;-72
2022/03/13 05:03:10;;;;;;;;;;;;;;;;;;2211260;67;1275;-72
2022/03/13 05:05:43;;;;;;;;;;;;;;;;;;2211238;67;1058;-71
2022/03/13 05:08:18;;;;;;;;;;;;;;;;;;2209148;53;3574;-73
2022/03/13 05:10:51;;;;;;;;;;;;;;;;;;2206780;59;1625;-73
2022/03/13 05:13:27;;;;;;;;;;;;;;;;;;2208386;59;1941;-73
2022/03/13 05:16:00;;;;;;;;;;;;;;;;;;2207514;59;1409;-73
2022/03/13 05:18:34;;;;;;;;;;;;;;;;;;2208028;59;1571;-73
2022/03/13 05:21:07;;;;;;;;;;;;;;;;;;2208438;67;1271;-73
2022/03/13 05:23:41;;;;;;;;;;;;;;;;;;2208187;59;2027;-73
2022/03/13 05:26:14;;;;;;;;;;;;;;;;;;2207725;59;1781;-73
2022/03/13 05:28:50;;;;;;;;;;;;;;;;;;2207420;59;1728;-73
2022/03/13 05:31:24;;;;;;;;;;;;;;;;;;2208041;67;1219;-73
2022/03/13 05:33:58;;;;;;;;;;;;;;;;;;2208109;59;1928;-73
2022/03/13 05:36:31;;;;;;;;;;;;;;;;;;2207732;67;1105;-73
2022/03/13 05:39:04;;;;;;;;;;;;;;;;;;2207407;59;2023;-73
2022/03/13 05:41:40;;;;;;;;;;;;;;;;;;2207793;59;2100;-73
2022/03/13 05:44:17;;;;;;;;;;;;;;;;;;2206903;59;1788;-73
2022/03/13 05:46:50;;;;;;;;;;;;;;;;;;2207308;59;1687;-73
2022/03/13 05:49:23;;;;;;;;;;;;;;;;;;2207247;59;1733;-73
2022/03/13 05:51:57;;;;;;;;;;;;;;;;;;2207009;59;1709;-73
2022/03/13 05:54:30;;;;;;;;;;;;;;;;;;2207041;59;2017;-73
2022/03/13 05:57:03;;;;;;;;;;;;;;;;;;2203610;59;2001;-74
2022/03/13 05:59:40;;;;;;;;;;;;;;;;;;2207503;59;1625;-73
2022/03/13 06:02:13;;;;;;;;;;;;;;;;;;2207987;59;1665;-73
2022/03/13 06:04:47;;;;;;;;;;;;;;;;;;2207142;59;1622;-73
2022/03/13 06:07:20;;;;;;;;;;;;;;;;;;2206733;59;1787;-73
2022/03/13 06:09:56;;;;;;;;;;;;;;;;;;2207226;59;1723;-73
2022/03/13 06:12:30;;;;;;;;;;;;;;;;;;2207924;59;1937;-73
2022/03/13 06:15:08;;;;;;;;;;;;;;;;;;2207439;67;1079;-73
2022/03/13 06:17:42;;;;;;;;;;;;;;;;;;2208002;60;1299;-73
2022/03/13 06:20:18;;;;;;;;;;;;;;;;;;2208103;67;1190;-73
2022/03/13 06:22:52;;;;;;;;;;;;;;;;;;2207859;67;1200;-73
2022/03/13 06:25:25;;;;;;;;;;;;;;;;;;2207974;59;2191;-73
2022/03/13 06:27:58;;;;;;;;;;;;;;;;;;2207803;59;1794;-73
2022/03/13 06:30:34;;;;;;;;;;;;;;;;;;2207965;67;1121;-73
2022/03/13 06:33:07;;;;;;;;;;;;;;;;;;2207954;67;1985;-73
2022/03/13 06:35:40;;;;;;;;;;;;;;;;;;2208082;67;1231;-73
2022/03/13 06:38:14;;;;;;;;;;;;;;;;;;2207269;59;1720;-73
2022/03/13 06:40:47;;;;;;;;;;;;;;;;;;2207625;59;1671;-73
2022/03/13 06:43:20;;;;;;;;;;;;;;;;;;2208154;59;1597;-73
2022/03/13 06:45:56;;;;;;;;;;;;;;;;;;2207843;67;1283;-73
2022/03/13 06:48:31;;;;;;;;;;;;;;;;;;2207556;59;1904;-73
2022/03/13 06:51:04;;;;;;;;;;;;;;;;;;2207644;59;1196;-73
2022/03/13 06:53:37;;;;;;;;;;;;;;;;;;2207711;59;2125;-73
2022/03/13 06:56:11;;;;;;;;;;;;;;;;;;2207800;67;1155;-73
2022/03/13 06:58:44;;;;;;;;;;;;;;;;;;2207849;67;1278;-73
2022/03/13 07:01:20;;;;;;;;;;;;;;;;;;2207600;59;1752;-73
2022/03/13 07:03:53;;;;;;;;;;;;;;;;;;2207695;59;1046;-73
2022/03/13 07:06:27;;;;;;;;;;;;;;;;;;2207991;67;1191;-73
2022/03/13 07:09:00;;;;;;;;;;;;;;;;;;2206963;59;1672;-73
2022/03/13 07:11:34;;;;;;;;;;;;;;;;;;2207241;59;1687;-73
2022/03/13 07:14:09;;;;;;;;;;;;;;;;;;2204161;59;2097;-73
2022/03/13 07:16:44;;;;;;;;;;;;;;;;;;2207580;59;1249;-74
2022/03/13 07:19:18;;;;;;;;;;;;;;;;;;2207989;59;1589;-73
2022/03/13 07:21:51;;;;;;;;;;;;;;;;;;2207127;59;1468;-73
2022/03/13 07:24:24;;;;;;;;;;;;;;;;;;2207889;67;2386;-73
2022/03/13 07:26:58;;;;;;;;;;;;;;;;;;2207494;59;1872;-73
2022/03/13 07:29:31;;;;;;;;;;;;;;;;;;2207886;59;1051;-73
2022/03/13 07:32:08;;;;;;;;;;;;;;;;;;2206841;59;1549;-73
2022/03/13 07:34:41;;;;;;;;;;;;;;;;;;2207844;67;1919;-74
2022/03/13 07:37:14;;;;;;;;;;;;;;;;;;2207925;67;1302;-73
2022/03/13 07:39:48;;;;;;;;;;;;;;;;;;2203643;59;1810;-74
2022/03/13 07:42:21;;;;;;;;;;;;;;;;;;2207404;59;1649;-73
2022/03/13 07:44:55;;;;;;;;;;;;;;;;;;2207651;67;1140;-73
2022/03/13 07:47:31;;;;;;;;;;;;;;;;;;2206827;59;1769;-73
2022/03/13 07:50:04;;;;;;;;;;;;;;;;;;2207362;60;1066;-73
2022/03/13 07:52:38;;;;;;;;;;;;;;;;;;2206442;59;1986;-73
2022/03/13 07:55:14;;;;;;;;;;;;;;;;;;2207788;59;2125;-73
2022/03/13 07:57:47;;;;;;;;;;;;;;;;;;2207750;67;1285;-73
2022/03/13 08:00:22;;;;;;;;;;;;;;;;;;2207529;59;1626;-74
2022/03/13 08:02:58;;;;;;;;;;;;;;;;;;2207077;59;1380;-73
2022/03/13 08:05:32;;;;;;;;;;;;;;;;;;2207896;59;1065;-74
2022/03/13 08:08:05;;;;;;;;;;;;;;;;;;2206750;59;1784;-74
2022/03/13 08:10:38;;;;;;;;;;;;;;;;;;2207967;67;1228;-73
2022/03/13 08:13:11;;;;;;;;;;;;;;;;;;2207714;67;1921;-73
2022/03/13 08:15:44;;;;;;;;;;;;;;;;;;2207048;59;1499;-73
2022/03/13 08:18:20;;;;;;;;;;;;;;;;;;2207944;67;1335;-74
2022/03/13 08:20:53;;;;;;;;;;;;;;;;;;2207065;67;1107;-73
2022/03/13 08:23:27;;;;;;;;;;;;;;;;;;2206932;59;1985;-73
2022/03/13 08:26:00;;;;;;;;;;;;;;;;;;2207132;60;1209;-73
2022/03/13 08:28:33;;;;;;;;;;;;;;;;;;2206840;59;1833;-74
2022/03/13 08:31:06;;;;;;;;;;;;;;;;;;2204051;67;1234;-73
2022/03/13 08:33:45;;;;;;;;;;;;;;;;;;2207652;67;1983;-73
2022/03/13 08:36:18;;;;;;;;;;;;;;;;;;2207788;67;1213;-74
2022/03/13 08:38:52;;;;;;;;;;;;;;;;;;2207465;67;1237;-74
2022/03/13 08:41:25;;;;;;;;;;;;;;;;;;2207488;67;1259;-74
2022/03/13 08:43:58;;;;;;;;;;;;;;;;;;2207282;67;1148;-74
2022/03/13 08:46:31;;;;;;;;;;;;;;;;;;2208060;59;1568;-74
2022/03/13 08:49:08;;;;;;;;;;;;;;;;;;2203823;59;1836;-74
2022/03/13 08:51:41;;;;;;;;;;;;;;;;;;2208345;67;1132;-74
2022/03/13 08:54:16;;;;;;;;;;;;;;;;;;2208295;59;2088;-73
2022/03/13 08:56:49;;;;;;;;;;;;;;;;;;2207997;67;1229;-74
2022/03/13 08:59:23;;;;;;;;;;;;;;;;;;2208332;59;1157;-74
2022/03/13 09:01:56;;;;;;;;;;;;;;;;;;2207855;67;1132;-74
2022/03/13 09:04:32;;;;;;;;;;;;;;;;;;2208373;59;1198;-74
2022/03/13 09:07:05;;;;;;;;;;;;;;;;;;2207058;59;1894;-73
2022/03/13 09:09:39;;;;;;;;;;;;;;;;;;2207880;67;1093;-73
2022/03/13 09:12:13;;;;;;;;;;;;;;;;;;2208316;67;1104;-73
2022/03/13 09:14:46;;;;;;;;;;;;;;;;;;2208218;59;1941;-74
2022/03/13 09:17:20;;;;;;;;;;;;;;;;;;2208447;67;1253;-73
2022/03/13 09:19:56;;;;;;;;;;;;;;;;;;2208448;67;1179;-74
2022/03/13 09:22:30;;;;;;;;;;;;;;;;;;2208347;59;1132;-74
2022/03/13 09:25:04;;;;;;;;;;;;;;;;;;2207911;59;1971;-74
2022/03/13 09:27:37;;;;;;;;;;;;;;;;;;2207977;59;1735;-73
2022/03/13 09:30:11;;;;;;;;;;;;;;;;;;2207909;59;1740;-74
2022/03/13 09:32:44;;;;;;;;;;;;;;;;;;2208623;59;1082;-74
2022/03/13 09:35:20;;;;;;;;;;;;;;;;;;2208325;59;1988;-74
2022/03/13 09:37:53;;;;;;;;;;;;;;;;;;2208229;59;1224;-74
2022/03/13 09:40:27;;;;;;;;;;;;;;;;;;2208434;59;1668;-74
2022/03/13 09:43:01;;;;;;;;;;;;;;;;;;2203595;67;1221;-74
2022/03/13 09:45:34;;;;;;;;;;;;;;;;;;2207293;59;1678;-74
2022/03/13 09:48:09;;;;;;;;;;;;;;;;;;2207547;59;1738;-73
2022/03/13 09:50:45;;;;;;;;;;;;;;;;;;2206844;59;1587;-74
2022/03/13 09:53:19;;;;;;;;;;;;;;;;;;2207469;67;1121;-75
2022/03/13 09:55:52;;;;;;;;;;;;;;;;;;2207517;59;1995;-73
2022/03/13 09:58:25;;;;;;;;;;;;;;;;;;2207600;59;1524;-74
2022/03/13 10:00:59;;;;;;;;;;;;;;;;;;2207670;59;1788;-73
2022/03/13 10:03:32;;;;;;;;;;;;;;;;;;2208047;59;1069;-74
2022/03/13 10:06:09;;;;;;;;;;;;;;;;;;2207942;59;1760;-74
2022/03/13 10:08:42;;;;;;;;;;;;;;;;;;2207252;59;1924;-74
2022/03/13 10:11:15;;;;;;;;;;;;;;;;;;2207560;67;1078;-74
2022/03/13 10:13:50;;;;;;;;;;;;;;;;;;2208080;59;1185;-74
2022/03/13 10:16:36;;;;;;;;;;;;;;;;;;2208084;67;1228;-74
2022/03/13 10:19:16;;;;;;;;;;;;;;;;;;2208171;67;1107;-74
2022/03/13 10:22:07;;;;;;;;;;;;;;;;;;2207793;59;1237;-74
2022/03/13 10:24:42;;;;;;;;;;;;;;;;;;2207940;67;2318;-74
2022/03/13 10:27:16;;;;;;;;;;;;;;;;;;2207207;59;1734;-74
2022/03/13 10:29:50;;;;;;;;;;;;;;;;;;2207676;67;1166;-74
2022/03/13 10:32:23;;;;;;;;;;;;;;;;;;2207706;59;1651;-74
2022/03/13 10:34:56;;;;;;;;;;;;;;;;;;2207747;67;1922;-73
2022/03/13 10:37:40;;;;;;;;;;;;;;;;;;2207849;67;1294;-73
2022/03/13 10:40:16;;;;;;;;;;;;;;;;;;2208043;67;1189;-73
2022/03/13 10:42:50;;;;;;;;;;;;;;;;;;2207246;59;1698;-74
2022/03/13 10:45:39;;;;;;;;;;;;;;;;;;2207098;67;1073;-74
2022/03/13 10:48:21;;;;;;;;;;;;;;;;;;2206499;59;1779;-74
2022/03/13 10:50:55;;;;;;;;;;;;;;;;;;2206683;59;1662;-74
2022/03/13 10:53:32;;;;;;;;;;;;;;;;;;2207056;59;2005;-74
2022/03/13 10:56:07;;;;;;;;;;;;;;;;;;2206644;67;2094;-74
2022/03/13 10:58:41;;;;;;;;;;;;;;;;;;2206492;59;1223;-74
2022/03/13 11:01:16;;;;;;;;;;;;;;;;;;2207455;67;1224;-74
2022/03/13 11:03:50;;;;;;;;;;;;;;;;;;2206816;59;1298;-73
2022/03/13 11:06:25;;;;;;;;;;;;;;;;;;2206880;59;1565;-74
2022/03/13 11:09:01;;;;;;;;;;;;;;;;;;2206203;53;2061;-69
2022/03/13 11:11:34;;;;;;;;;;;;;;;;;;2205400;59;1564;-69
2022/03/13 11:14:07;;;;;;;;;;;;;;;;;;2207222;67;1276;-69
2022/03/13 11:16:41;;;;;;;;;;;;;;;;;;2207344;59;1923;-69
2022/03/13 11:19:14;;;;;;;;;;;;;;;;;;2203877;59;1288;-69
2022/03/13 11:21:48;;;;;;;;;;;;;;;;;;2203188;59;1143;-69
2022/03/13 11:24:23;;;;;;;;;;;;;;;;;;2203967;59;2108;-69
2022/03/13 11:26:57;;;;;;;;;;;;;;;;;;2203235;67;1262;-69
2022/03/13 11:29:42;;;;;;;;;;;;;;;;;;2199764;59;1773;-69
2022/03/13 11:32:31;;;;;;;;;;;;;;;;;;2202930;67;1106;-70
2022/03/13 11:35:24;;;;;;;;;;;;;;;;;;2202971;59;1936;-69
2022/03/13 11:38:17;;;;;;;;;;;;;;;;;;2203312;59;1281;-70
2022/03/13 11:40:53;;;;;;;;;;;;;;;;;;2200285;60;1420;-69
2022/03/13 11:43:36;;;;;;;;;;;;;;;;;;2202620;59;1492;-69
2022/03/13 11:46:10;;;;;;;;;;;;;;;;;;2200312;67;1312;-69
2022/03/13 11:48:43;;;;;;;;;;;;;;;;;;2202841;59;1707;-69
2022/03/13 11:51:30;;;;;;;;;;;;;;;;;;2200068;67;1253;-69
2022/03/13 11:54:05;;;;;;;;;;;;;;;;;;2202874;59;2102;-69
2022/03/13 11:56:48;;;;;;;;;;;;;;;;;;2203159;59;1960;-70
2022/03/13 11:59:24;;;;;;;;;;;;;;;;;;2203515;67;1345;-70
2022/03/13 12:01:57;;;;;;;;;;;;;;;;;;2203789;67;1255;-69
2022/03/13 12:04:31;;;;;;;;;;;;;;;;;;2203898;59;1268;-67
2022/03/13 12:07:06;;;;;;;;;;;;;;;;;;2203771;59;1638;-68
2022/03/13 12:09:44;;;;;;;;;;;;;;;;;;2203855;59;1069;-70
2022/03/13 12:12:20;;;;;;;;;;;;;;;;;;2203732;59;1184;-67
2022/03/13 12:14:54;;;;;;;;;;;;;;;;;;2204247;67;1976;-70
2022/03/13 12:17:29;;;;;;;;;;;;;;;;;;2203654;67;1238;-70
2022/03/13 12:20:03;;;;;;;;;;;;;;;;;;2203303;67;1174;-70
2022/03/13 12:22:36;;;;;;;;;;;;;;;;;;2205323;67;1101;-70
2022/03/13 12:25:09;;;;;;;;;;;;;;;;;;2204056;67;2397;-69
2022/03/13 12:27:50;;;;;;;;;;;;;;;;;;2205421;59;1628;-69
2022/03/13 12:30:27;;;;;;;;;;;;;;;;;;2203814;59;1263;-69
2022/03/13 12:33:01;;;;;;;;;;;;;;;;;;2204340;59;1254;-69
2022/03/13 12:35:34;;;;;;;;;;;;;;;;;;2204382;67;1933;-69
2022/03/13 12:38:07;;;;;;;;;;;;;;;;;;2204316;59;1378;-70
2022/03/13 12:40:49;;;;;;;;;;;;;;;;;;2205008;67;1256;-69
2022/03/13 12:43:26;;;;;;;;;;;;;;;;;;2205218;59;1232;-70
2022/03/13 12:45:59;;;;;;;;;;;;;;;;;;2204650;67;1300;-70
2022/03/13 12:48:37;;;;;;;;;;;;;;;;;;2203709;59;1888;-69
2022/03/13 12:51:10;;;;;;;;;;;;;;;;;;2204510;67;1342;-70
2022/03/13 12:53:54;;;;;;;;;;;;;;;;;;2204905;59;1995;-70
2022/03/13 12:56:29;;;;;;;;;;;;;;;;;;2203403;59;1941;-70
2022/03/13 12:59:05;;;;;;;;;;;;;;;;;;2203612;59;1219;-70
2022/03/13 13:01:38;;;;;;;;;;;;;;;;;;2205226;67;1146;-69
2022/03/13 13:04:19;;;;;;;;;;;;;;;;;;2201205;67;1233;-69
2022/03/13 13:06:53;;;;;;;;;;;;;;;;;;2204693;67;1276;-69
2022/03/13 13:09:29;;;;;;;;;;;;;;;;;;2203818;59;1852;-70
2022/03/13 13:12:03;;;;;;;;;;;;;;;;;;2203011;59;1642;-70
2022/03/13 13:14:39;;;;;;;;;;;;;;;;;;2204521;67;1085;-69
2022/03/13 13:17:13;;;;;;;;;;;;;;;;;;2203340;67;1985;-69
2022/03/13 13:19:47;;;;;;;;;;;;;;;;;;2204397;67;1303;-69
2022/03/13 13:22:27;;;;;;;;;;;;;;;;;;2204299;59;1075;-67
2022/03/13 13:25:01;;;;;;;;;;;;;;;;;;2204587;60;2410;-68
2022/03/13 13:27:36;;;;;;;;;;;;;;;;;;2203125;59;1770;-68
2022/03/13 13:30:24;;;;;;;;;;;;;;;;;;2203843;67;1090;-68
2022/03/13 13:33:00;;;;;;;;;;;;;;;;;;2204106;67;1166;-68
2022/03/13 13:35:35;;;;;;;;;;;;;;;;;;2204150;67;1934;-68
2022/03/13 13:38:11;;;;;;;;;;;;;;;;;;2204131;67;1304;-68
2022/03/13 13:40:46;;;;;;;;;;;;;;;;;;2204117;59;1129;-68
2022/03/13 13:43:27;;;;;;;;;;;;;;;;;;2204568;59;1085;-68
2022/03/13 13:46:08;;;;;;;;;;;;;;;;;;2204276;67;1284;-68
2022/03/13 13:48:49;;;;;;;;;;;;;;;;;;2203977;59;1635;-68
2022/03/13 13:51:24;;;;;;;;;;;;;;;;;;2203228;59;1199;-68
2022/03/13 13:53:59;;;;;;;;;;;;;;;;;;2203875;59;2175;-68
2022/03/13 13:56:34;;;;;;;;;;;;;;;;;;2204229;59;1931;-67
2022/03/13 13:59:17;;;;;;;;;;;;;;;;;;2204140;67;1305;-68
2022/03/13 14:01:54;;;;;;;;;;;;;;;;;;2203798;59;1347;-68
2022/03/13 14:04:27;;;;;;;;;;;;;;;;;;2204547;59;1109;-68
2022/03/13 14:07:01;;;;;;;;;;;;;;;;;;2204089;67;1255;-68
2022/03/13 14:09:35;;;;;;;;;;;;;;;;;;2204052;59;1630;-68
2022/03/13 14:12:09;;;;;;;;;;;;;;;;;;2204380;67;1156;-68
2022/03/13 14:14:42;;;;;;;;;;;;;;;;;;2203554;59;1625;-67
2022/03/13 14:17:18;;;;;;;;;;;;;;;;;;2204124;67;1928;-68
2022/03/13 14:19:51;;;;;;;;;;;;;;;;;;2203930;67;1146;-68
2022/03/13 14:22:24;;;;;;;;;;;;;;;;;;2204614;67;1207;-68
2022/03/13 14:24:57;;;;;;;;;;;;;;;;;;2204788;67;2424;-68
2022/03/13 14:27:31;;;;;;;;;;;;;;;;;;2204779;59;1577;-68
2022/03/13 14:30:05;;;;;;;;;;;;;;;;;;2204418;67;1304;-68
2022/03/13 14:32:43;;;;;;;;;;;;;;;;;;2204453;67;1303;-68
2022/03/13 14:35:16;;;;;;;;;;;;;;;;;;2204527;67;1394;-68
2022/03/13 14:37:49;;;;;;;;;;;;;;;;;;2204015;67;1946;-68
2022/03/13 14:40:22;;;;;;;;;;;;;;;;;;2204619;67;1151;-67
2022/03/13 14:42:55;;;;;;;;;;;;;;;;;;2204093;67;1225;-67
2022/03/13 14:45:29;;;;;;;;;;;;;;;;;;2204314;67;1094;-67
2022/03/13 14:48:05;;;;;;;;;;;;;;;;;;2204347;59;1552;-68
2022/03/13 14:50:38;;;;;;;;;;;;;;;;;;2203590;67;1324;-67
2022/03/13 14:53:11;;;;;;;;;;;;;;;;;;2200998;67;1107;-69
2022/03/13 14:55:44;;;;;;;;;;;;;;;;;;2204100;59;2426;-70
2022/03/13 14:58:18;;;;;;;;;;;;;;;;;;2204604;59;1265;-69
2022/03/13 15:00:51;;;;;;;;;;;;;;;;;;2203988;67;1240;-70
2022/03/13 15:03:27;;;;;;;;;;;;;;;;;;2204533;59;1188;-70
2022/03/13 15:06:00;;;;;;;;;;;;;;;;;;2203719;59;1090;-69
2022/03/13 15:08:34;;;;;;;;;;;;;;;;;;2203413;59;1682;-69
2022/03/13 15:11:07;;;;;;;;;;;;;;;;;;2203910;67;1425;-69
2022/03/13 15:13:40;;;;;;;;;;;;;;;;;;2204050;67;1245;-69
2022/03/13 15:16:14;;;;;;;;;;;;;;;;;;2204214;67;1984;-69
2022/03/13 15:18:50;;;;;;;;;;;;;;;;;;2204365;59;1202;-69
2022/03/13 15:21:23;;;;;;;;;;;;;;;;;;2204389;67;1076;-69
2022/03/13 15:23:56;;;;;;;;;;;;;;;;;;2200978;59;2004;-69
2022/03/13 15:26:30;;;;;;;;;;;;;;;;;;2201025;67;1174;-69
2022/03/13 15:29:03;;;;;;;;;;;;;;;;;;2200532;59;1784;-69
2022/03/13 15:31:36;;;;;;;;;;;;;;;;;;2204457;59;1272;-69
2022/03/13 15:34:12;;;;;;;;;;;;;;;;;;2204276;67;1138;-69
2022/03/13 15:36:45;;;;;;;;;;;;;;;;;;2204112;67;1948;-69
2022/03/13 15:39:18;;;;;;;;;;;;;;;;;;2204334;59;1139;-69
2022/03/13 15:41:52;;;;;;;;;;;;;;;;;;2204268;67;1272;-69
2022/03/13 15:44:26;;;;;;;;;;;;;;;;;;2203766;60;1268;-69
2022/03/13 15:46:59;;;;;;;;;;;;;;;;;;2203138;67;1319;-69
2022/03/13 15:49:35;;;;;;;;;;;;;;;;;;2204353;59;1985;-69
2022/03/13 15:52:09;;;;;;;;;;;;;;;;;;2203712;67;1193;-69
2022/03/13 15:54:42;;;;;;;;;;;;;;;;;;2204264;59;2105;-69
2022/03/13 15:57:15;;;;;;;;;;;;;;;;;;2203020;67;2100;-69
2022/03/13 15:59:48;;;;;;;;;;;;;;;;;;2203878;67;1285;-69
2022/03/13 16:02:21;;;;;;;;;;;;;;;;;;2199819;67;1078;-69
2022/03/13 16:04:57;;;;;;;;;;;;;;;;;;2203927;67;1121;-69
2022/03/13 16:07:31;;;;;;;;;;;;;;;;;;2203666;59;1773;-69
2022/03/13 16:10:05;;;;;;;;;;;;;;;;;;2203709;67;1189;-69
2022/03/13 16:12:38;;;;;;;;;;;;;;;;;;2203690;59;1284;-69
2022/03/13 16:15:13;;;;;;;;;;;;;;;;;;2204187;67;1173;-69
2022/03/13 16:17:46;;;;;;;;;;;;;;;;;;2204022;59;1934;-68
2022/03/13 16:20:23;;;;;;;;;;;;;;;;;;2204148;67;1240;-68
2022/03/13 16:22:56;;;;;;;;;;;;;;;;;;2204027;67;1112;-68
2022/03/13 16:25:29;;;;;;;;;;;;;;;;;;2204483;59;1955;-68
2022/03/13 16:28:02;;;;;;;;;;;;;;;;;;2203882;59;1632;-68
2022/03/13 16:30:36;;;;;;;;;;;;;;;;;;2204555;67;1253;-68
2022/03/13 16:33:09;;;;;;;;;;;;;;;;;;2203537;59;1168;-68
2022/03/13 16:35:45;;;;;;;;;;;;;;;;;;2203558;59;1697;-68
2022/03/13 16:38:18;;;;;;;;;;;;;;;;;;2203384;67;1933;-68
2022/03/13 16:40:53;;;;;;;;;;;;;;;;;;2204275;67;1264;-68
2022/03/13 16:43:26;;;;;;;;;;;;;;;;;;2203595;59;1112;-68
2022/03/13 16:46:00;;;;;;;;;;;;;;;;;;2204029;67;1068;-68
2022/03/13 16:48:33;;;;;;;;;;;;;;;;;;2202013;59;1622;-71
2022/03/13 16:51:09;;;;;;;;;;;;;;;;;;2203458;67;1208;-70
2022/03/13 16:53:42;;;;;;;;;;;;;;;;;;2200190;67;2019;-70
2022/03/13 16:56:16;;;;;;;;;;;;;;;;;;2204444;67;1933;-71
2022/03/13 16:58:49;;;;;;;;;;;;;;;;;;2204190;67;1263;-71
2022/03/13 17:01:22;;;;;;;;;;;;;;;;;;2204031;67;1180;-71
2022/03/13 17:03:55;;;;;;;;;;;;;;;;;;2204154;67;1110;-71
2022/03/13 17:06:31;;;;;;;;;;;;;;;;;;2204070;59;1621;-70
2022/03/13 17:09:05;;;;;;;;;;;;;;;;;;2207885;53;3511;-70
2022/03/13 17:11:38;;;;;;;;;;;;;;;;;;2209155;59;1105;-70
2022/03/13 17:14:11;;;;;;;;;;;;;;;;;;2211089;67;1227;-69
2022/03/13 17:16:45;;;;;;;;;;;;;;;;;;2209654;59;1985;-69
2022/03/13 17:19:18;;;;;;;;;;;;;;;;;;2205781;67;1223;-70
2022/03/13 17:21:54;;;;;;;;;;;;;;;;;;2205798;59;1354;-69
2022/03/13 17:24:28;;;;;;;;;;;;;;;;;;2205661;67;2544;-70
2022/03/13 17:27:02;;;;;;;;;;;;;;;;;;2207384;67;1229;-70
2022/03/13 17:29:37;;;;;;;;;;;;;;;;;;2207439;59;2063;-70
2022/03/13 17:32:10;;;;;;;;;;;;;;;;;;2203111;67;1252;-70
2022/03/13 17:34:43;;;;;;;;;;;;;;;;;;2205622;67;1141;-69
2022/03/13 17:37:20;;;;;;;;;;;;;;;;;;2207274;67;1995;-69
2022/03/13 17:39:53;;;;;;;;;;;;;;;;;;2206231;59;1306;-70
2022/03/13 17:42:26;;;;;;;;;;;;;;;;;;2207624;59;1216;-69
2022/03/13 17:44:59;;;;;;;;;;;;;;;;;;2206497;59;1296;-70
2022/03/13 17:47:32;;;;;;;;;;;;;;;;;;2204804;59;1844;-70
2022/03/13 17:50:06;;;;;;;;;;;;;;;;;;2206001;67;1212;-70
2022/03/13 17:52:43;;;;;;;;;;;;;;;;;;2205647;59;1228;-70
2022/03/13 17:55:16;;;;;;;;;;;;;;;;;;2207577;67;2083;-69